Aérodrome :
LOGIN :

S'inscrire | Disclaimer

   EN    FR    IT 

 










Légende :    VFR   VFR Marginal   IFR   IFR Intensif   IFR Très Intensif
Visi : 
Plafond : 
>= 8 km
>= 3000ft
5 à 8 km
1000 à 3000 ft
1500m à 5 km
500 à 1000 ft
800 à 1500m
200 à 500 ft
< 800m
< 200 ft
Symboles :   Orages  Brouillard  Fortes neiges  Fortes précipitations  Vent > 20 kt
SIGMETs :   Divers  Orages  Givrage  Turbulence  Onde Orograph.  Cendres Volcan.






- Altitude de l'aérodrome : 17 ft
- Code IATA : GRS


LIRS - Grosseto

DERNIER METAR :
  • 292155Z 36005KT 9999 FEW060 08/05 Q1009

METARs EXPIRÉS :
  • 292055Z 12003KT 9999 SCT060 07/05 Q1008
  • 291955Z 04003KT 9999 FEW020 08/06 Q1008 RMK SCT SCT200 VIS MIN 9999 WIND THR03 07004KT WIND THR21 04002KT BLU
  • 291855Z 08005KT 9999 FEW020 08/07 Q1008
  • 291755Z 11004KT 9999 FEW020 10/07 Q1008 RMK FEW VIS MIN 9999 WIND THR03 12004KT WIND THR21 11003KT BLU

TAF TAF LIRS
Valide du 29 à 15h jusqu'au 30 à 00h UTC


291400Z 2915/2924 15007KT 9999 FEW020 SCT040



MET'MAP, la Météo Aéronautique d'un coup d'oeil ! - Copyright ORBIFLY Décembre 2007 - Disclaimer

ORBIFLY MET'MAP TEAM :

Programmation & Développement : Alexandra Zaïnal
Sur une idée originale de : Baudouin d'Aumeries
Soutien technique & logistique : Manuel Goepfert
Assistance : Marc-Olivier Méhu




SOURCES & CREDITS :

   NOAA